sensor_id;sensor_type;location;lat;lon;timestamp;temperature;humidity
47765;DHT22;33529;49.242;8.670;2022-07-04T00:00:50;20.40;98.10
47765;DHT22;33529;49.242;8.670;2022-07-04T00:03:17;20.40;97.90
47765;DHT22;33529;49.242;8.670;2022-07-04T00:05:44;20.40;97.90
47765;DHT22;33529;49.242;8.670;2022-07-04T00:08:11;20.40;98.10
47765;DHT22;33529;49.242;8.670;2022-07-04T00:10:38;20.40;97.80
47765;DHT22;33529;49.242;8.670;2022-07-04T00:13:05;20.30;97.70
47765;DHT22;33529;49.242;8.670;2022-07-04T00:15:32;20.20;98.10
47765;DHT22;33529;49.242;8.670;2022-07-04T00:17:59;20.20;98.10
47765;DHT22;33529;49.242;8.670;2022-07-04T00:20:26;20.10;98.10
47765;DHT22;33529;49.242;8.670;2022-07-04T00:22:52;20.10;97.80
47765;DHT22;33529;49.242;8.670;2022-07-04T00:25:19;20.20;97.80
47765;DHT22;33529;49.242;8.670;2022-07-04T00:27:46;20.10;97.80
47765;DHT22;33529;49.242;8.670;2022-07-04T00:30:13;20.00;98.40
47765;DHT22;33529;49.242;8.670;2022-07-04T00:32:40;20.00;98.40
47765;DHT22;33529;49.242;8.670;2022-07-04T00:35:07;19.90;98.60
47765;DHT22;33529;49.242;8.670;2022-07-04T00:37:34;19.90;98.80
47765;DHT22;33529;49.242;8.670;2022-07-04T00:40:02;19.80;99.40
47765;DHT22;33529;49.242;8.670;2022-07-04T00:42:29;19.70;99.60
47765;DHT22;33529;49.242;8.670;2022-07-04T00:44:55;19.60;99.90
47765;DHT22;33529;49.242;8.670;2022-07-04T00:47:22;19.60;99.90
47765;DHT22;33529;49.242;8.670;2022-07-04T00:49:49;19.50;99.90
47765;DHT22;33529;49.242;8.670;2022-07-04T00:52:17;19.50;99.90
47765;DHT22;33529;49.242;8.670;2022-07-04T00:54:44;19.40;99.90
47765;DHT22;33529;49.242;8.670;2022-07-04T00:57:12;19.30;99.90
47765;DHT22;33529;49.242;8.670;2022-07-04T00:59:40;19.30;99.90
47765;DHT22;33529;49.242;8.670;2022-07-04T01:02:07;19.30;99.90
47765;DHT22;33529;49.242;8.670;2022-07-04T01:04:34;19.30;99.90
47765;DHT22;33529;49.242;8.670;2022-07-04T01:07:02;19.30;99.90
47765;DHT22;33529;49.242;8.670;2022-07-04T01:09:31;19.30;99.90
47765;DHT22;33529;49.242;8.670;2022-07-04T01:11:57;19.40;99.90
47765;DHT22;33529;49.242;8.670;2022-07-04T01:14:24;19.30;99.90
47765;DHT22;33529;49.242;8.670;2022-07-04T01:16:51;19.20;99.90
47765;DHT22;33529;49.242;8.670;2022-07-04T01:19:18;19.10;99.90
47765;DHT22;33529;49.242;8.670;2022-07-04T01:21:45;19.00;99.90
47765;DHT22;33529;49.242;8.670;2022-07-04T01:24:12;19.00;99.90
47765;DHT22;33529;49.242;8.670;2022-07-04T01:26:39;19.10;99.90
47765;DHT22;33529;49.242;8.670;2022-07-04T01:29:06;19.00;99.90
47765;DHT22;33529;49.242;8.670;2022-07-04T01:31:33;19.00;99.90
47765;DHT22;33529;49.242;8.670;2022-07-04T01:34:00;18.90;99.90
47765;DHT22;33529;49.242;8.670;2022-07-04T01:36:27;18.90;99.90
47765;DHT22;33529;49.242;8.670;2022-07-04T01:38:53;18.80;99.90
47765;DHT22;33529;49.242;8.670;2022-07-04T01:41:23;18.70;99.90
47765;DHT22;33529;49.242;8.670;2022-07-04T01:43:49;18.80;99.90
47765;DHT22;33529;49.242;8.670;2022-07-04T01:46:16;18.60;99.90
47765;DHT22;33529;49.242;8.670;2022-07-04T01:48:44;18.60;99.90
47765;DHT22;33529;49.242;8.670;2022-07-04T01:51:11;18.60;99.90
47765;DHT22;33529;49.242;8.670;2022-07-04T01:53:38;18.50;99.90
47765;DHT22;33529;49.242;8.670;2022-07-04T01:56:05;18.50;99.90
47765;DHT22;33529;49.242;8.670;2022-07-04T01:58:31;18.50;99.90
47765;DHT22;33529;49.242;8.670;2022-07-04T02:00:59;18.50;99.90
47765;DHT22;33529;49.242;8.670;2022-07-04T02:03:44;18.50;99.90
47765;DHT22;33529;49.242;8.670;2022-07-04T02:06:12;18.50;99.90
47765;DHT22;33529;49.242;8.670;2022-07-04T02:08:39;18.40;99.90
47765;DHT22;33529;49.242;8.670;2022-07-04T02:11:24;18.40;99.90
47765;DHT22;33529;49.242;8.670;2022-07-04T02:13:51;18.30;99.90
47765;DHT22;33529;49.242;8.670;2022-07-04T02:16:18;18.20;99.90
47765;DHT22;33529;49.242;8.670;2022-07-04T02:18:45;18.20;99.90
47765;DHT22;33529;49.242;8.670;2022-07-04T02:21:13;18.20;99.90
47765;DHT22;33529;49.242;8.670;2022-07-04T02:23:40;18.20;99.90
47765;DHT22;33529;49.242;8.670;2022-07-04T02:26:06;18.10;99.90
47765;DHT22;33529;49.242;8.670;2022-07-04T02:28:33;18.10;99.90
47765;DHT22;33529;49.242;8.670;2022-07-04T02:31:00;18.10;99.90
47765;DHT22;33529;49.242;8.670;2022-07-04T02:33:27;17.90;99.90
47765;DHT22;33529;49.242;8.670;2022-07-04T02:35:54;17.80;99.90
47765;DHT22;33529;49.242;8.670;2022-07-04T02:38:20;17.80;99.90
47765;DHT22;33529;49.242;8.670;2022-07-04T02:40:47;17.80;99.90
47765;DHT22;33529;49.242;8.670;2022-07-04T02:43:14;17.70;99.90
47765;DHT22;33529;49.242;8.670;2022-07-04T02:45:41;17.70;99.90
47765;DHT22;33529;49.242;8.670;2022-07-04T02:48:07;17.60;99.90
47765;DHT22;33529;49.242;8.670;2022-07-04T02:50:34;17.60;99.90
47765;DHT22;33529;49.242;8.670;2022-07-04T02:53:01;17.60;99.90
47765;DHT22;33529;49.242;8.670;2022-07-04T02:55:28;17.50;99.90
47765;DHT22;33529;49.242;8.670;2022-07-04T02:57:55;17.60;99.90
47765;DHT22;33529;49.242;8.670;2022-07-04T03:00:22;17.50;99.90
47765;DHT22;33529;49.242;8.670;2022-07-04T03:02:49;17.40;99.90
47765;DHT22;33529;49.242;8.670;2022-07-04T03:05:15;17.40;99.90
47765;DHT22;33529;49.242;8.670;2022-07-04T03:07:42;17.40;99.90
47765;DHT22;33529;49.242;8.670;2022-07-04T03:10:09;17.30;99.90
47765;DHT22;33529;49.242;8.670;2022-07-04T03:12:36;17.40;99.90
47765;DHT22;33529;49.242;8.670;2022-07-04T03:15:03;17.30;99.90
47765;DHT22;33529;49.242;8.670;2022-07-04T03:17:30;17.30;99.90
47765;DHT22;33529;49.242;8.670;2022-07-04T03:19:57;17.30;99.90
47765;DHT22;33529;49.242;8.670;2022-07-04T03:22:25;17.20;99.90
47765;DHT22;33529;49.242;8.670;2022-07-04T03:24:52;17.20;99.90
47765;DHT22;33529;49.242;8.670;2022-07-04T03:27:18;17.20;99.90
47765;DHT22;33529;49.242;8.670;2022-07-04T03:29:45;17.20;99.90
47765;DHT22;33529;49.242;8.670;2022-07-04T03:32:12;17.10;99.90
47765;DHT22;33529;49.242;8.670;2022-07-04T03:34:39;17.00;99.90
47765;DHT22;33529;49.242;8.670;2022-07-04T03:37:05;17.00;99.90
47765;DHT22;33529;49.242;8.670;2022-07-04T03:39:33;17.00;99.90
47765;DHT22;33529;49.242;8.670;2022-07-04T03:41:59;17.00;99.90
47765;DHT22;33529;49.242;8.670;2022-07-04T03:44:26;17.00;99.90
47765;DHT22;33529;49.242;8.670;2022-07-04T03:46:53;17.00;99.90
47765;DHT22;33529;49.242;8.670;2022-07-04T03:49:20;16.90;99.90
47765;DHT22;33529;49.242;8.670;2022-07-04T03:51:47;17.00;99.90
47765;DHT22;33529;49.242;8.670;2022-07-04T03:54:14;16.90;99.90
47765;DHT22;33529;49.242;8.670;2022-07-04T03:56:43;16.90;99.90
47765;DHT22;33529;49.242;8.670;2022-07-04T03:59:10;16.90;99.90
47765;DHT22;33529;49.242;8.670;2022-07-04T04:01:37;16.90;99.90
47765;DHT22;33529;49.242;8.670;2022-07-04T04:04:04;16.80;99.90
47765;DHT22;33529;49.242;8.670;2022-07-04T04:06:50;16.90;99.90
47765;DHT22;33529;49.242;8.670;2022-07-04T04:09:16;16.90;99.90
47765;DHT22;33529;49.242;8.670;2022-07-04T04:11:45;16.90;99.90
47765;DHT22;33529;49.242;8.670;2022-07-04T04:14:12;16.80;99.90
47765;DHT22;33529;49.242;8.670;2022-07-04T04:16:39;16.90;99.90
47765;DHT22;33529;49.242;8.670;2022-07-04T04:19:06;16.80;99.90
47765;DHT22;33529;49.242;8.670;2022-07-04T04:21:33;16.90;99.90
47765;DHT22;33529;49.242;8.670;2022-07-04T04:23:59;16.90;99.90
47765;DHT22;33529;49.242;8.670;2022-07-04T04:26:26;17.00;99.90
47765;DHT22;33529;49.242;8.670;2022-07-04T04:28:53;17.00;99.90
47765;DHT22;33529;49.242;8.670;2022-07-04T04:31:20;17.00;99.90
47765;DHT22;33529;49.242;8.670;2022-07-04T04:33:47;17.10;99.90
47765;DHT22;33529;49.242;8.670;2022-07-04T04:36:14;17.10;99.90
47765;DHT22;33529;49.242;8.670;2022-07-04T04:38:41;17.10;99.90
47765;DHT22;33529;49.242;8.670;2022-07-04T04:41:08;17.20;99.90
47765;DHT22;33529;49.242;8.670;2022-07-04T04:43:35;17.30;99.90
47765;DHT22;33529;49.242;8.670;2022-07-04T04:46:02;17.40;99.90
47765;DHT22;33529;49.242;8.670;2022-07-04T04:48:29;17.40;99.90
47765;DHT22;33529;49.242;8.670;2022-07-04T04:50:55;17.40;99.90
47765;DHT22;33529;49.242;8.670;2022-07-04T04:53:22;17.40;99.90
47765;DHT22;33529;49.242;8.670;2022-07-04T04:55:52;17.50;99.90
47765;DHT22;33529;49.242;8.670;2022-07-04T04:58:20;17.60;99.90
47765;DHT22;33529;49.242;8.670;2022-07-04T05:00:47;17.60;99.90
47765;DHT22;33529;49.242;8.670;2022-07-04T05:03:36;17.60;99.90
47765;DHT22;33529;49.242;8.670;2022-07-04T05:06:03;17.70;99.90
47765;DHT22;33529;49.242;8.670;2022-07-04T05:08:29;17.80;99.90
47765;DHT22;33529;49.242;8.670;2022-07-04T05:10:56;17.90;99.90
47765;DHT22;33529;49.242;8.670;2022-07-04T05:13:23;18.10;99.90
47765;DHT22;33529;49.242;8.670;2022-07-04T05:15:50;18.10;99.90
47765;DHT22;33529;49.242;8.670;2022-07-04T05:18:17;18.20;99.90
47765;DHT22;33529;49.242;8.670;2022-07-04T05:20:44;18.40;99.90
47765;DHT22;33529;49.242;8.670;2022-07-04T05:23:11;18.40;99.90
47765;DHT22;33529;49.242;8.670;2022-07-04T05:25:38;18.60;99.90
47765;DHT22;33529;49.242;8.670;2022-07-04T05:28:05;18.60;99.90
47765;DHT22;33529;49.242;8.670;2022-07-04T05:30:32;18.70;99.90
47765;DHT22;33529;49.242;8.670;2022-07-04T05:32:59;18.70;99.90
47765;DHT22;33529;49.242;8.670;2022-07-04T05:35:27;18.90;99.90
47765;DHT22;33529;49.242;8.670;2022-07-04T05:37:54;19.00;99.90
47765;DHT22;33529;49.242;8.670;2022-07-04T05:40:21;19.00;99.90
47765;DHT22;33529;49.242;8.670;2022-07-04T05:42:50;19.00;99.90
47765;DHT22;33529;49.242;8.670;2022-07-04T05:45:17;19.10;99.90
47765;DHT22;33529;49.242;8.670;2022-07-04T05:47:44;19.10;99.90
47765;DHT22;33529;49.242;8.670;2022-07-04T05:50:11;19.10;99.90
47765;DHT22;33529;49.242;8.670;2022-07-04T05:52:38;19.20;99.90
47765;DHT22;33529;49.242;8.670;2022-07-04T05:55:05;19.30;99.90
47765;DHT22;33529;49.242;8.670;2022-07-04T05:57:34;19.30;99.90
47765;DHT22;33529;49.242;8.670;2022-07-04T06:00:01;19.50;99.90
47765;DHT22;33529;49.242;8.670;2022-07-04T06:02:31;19.70;99.90
47765;DHT22;33529;49.242;8.670;2022-07-04T06:04:58;19.60;99.90
47765;DHT22;33529;49.242;8.670;2022-07-04T06:07:24;19.60;99.90
47765;DHT22;33529;49.242;8.670;2022-07-04T06:09:51;19.70;99.90
47765;DHT22;33529;49.242;8.670;2022-07-04T06:12:18;19.80;99.90
47765;DHT22;33529;49.242;8.670;2022-07-04T06:14:45;19.90;99.90
47765;DHT22;33529;49.242;8.670;2022-07-04T06:17:13;20.00;99.90
47765;DHT22;33529;49.242;8.670;2022-07-04T06:19:39;20.10;99.90
47765;DHT22;33529;49.242;8.670;2022-07-04T06:22:06;20.10;99.60
47765;DHT22;33529;49.242;8.670;2022-07-04T06:24:33;20.20;99.20
47765;DHT22;33529;49.242;8.670;2022-07-04T06:27:00;20.00;99.50
47765;DHT22;33529;49.242;8.670;2022-07-04T06:29:29;19.90;99.90
47765;DHT22;33529;49.242;8.670;2022-07-04T06:31:56;20.00;99.90
47765;DHT22;33529;49.242;8.670;2022-07-04T06:34:23;19.90;99.90
47765;DHT22;33529;49.242;8.670;2022-07-04T06:37:09;20.00;99.90
47765;DHT22;33529;49.242;8.670;2022-07-04T06:39:36;20.30;98.80
47765;DHT22;33529;49.242;8.670;2022-07-04T06:42:03;20.40;98.90
47765;DHT22;33529;49.242;8.670;2022-07-04T06:44:30;20.60;98.60
47765;DHT22;33529;49.242;8.670;2022-07-04T06:46:57;20.80;98.20
47765;DHT22;33529;49.242;8.670;2022-07-04T06:49:23;20.80;98.50
47765;DHT22;33529;49.242;8.670;2022-07-04T06:51:50;21.00;98.60
47765;DHT22;33529;49.242;8.670;2022-07-04T06:54:17;21.20;97.80
47765;DHT22;33529;49.242;8.670;2022-07-04T06:56:44;21.40;98.00
47765;DHT22;33529;49.242;8.670;2022-07-04T06:59:10;21.50;97.80
47765;DHT22;33529;49.242;8.670;2022-07-04T07:01:37;21.70;97.10
47765;DHT22;33529;49.242;8.670;2022-07-04T07:04:04;21.60;96.80
47765;DHT22;33529;49.242;8.670;2022-07-04T07:06:31;21.70;96.70
47765;DHT22;33529;49.242;8.670;2022-07-04T07:08:58;21.80;96.90
47765;DHT22;33529;49.242;8.670;2022-07-04T07:11:24;21.80;96.00
47765;DHT22;33529;49.242;8.670;2022-07-04T07:13:52;21.80;96.50
47765;DHT22;33529;49.242;8.670;2022-07-04T07:16:19;22.00;96.70
47765;DHT22;33529;49.242;8.670;2022-07-04T07:18:46;22.30;95.20
47765;DHT22;33529;49.242;8.670;2022-07-04T07:21:13;22.40;94.70
47765;DHT22;33529;49.242;8.670;2022-07-04T07:23:40;22.40;95.40
47765;DHT22;33529;49.242;8.670;2022-07-04T07:26:08;22.30;95.10
47765;DHT22;33529;49.242;8.670;2022-07-04T07:28:35;22.40;94.50
47765;DHT22;33529;49.242;8.670;2022-07-04T07:31:02;22.60;94.70
47765;DHT22;33529;49.242;8.670;2022-07-04T07:33:29;22.80;94.80
47765;DHT22;33529;49.242;8.670;2022-07-04T07:35:56;22.80;94.20
47765;DHT22;33529;49.242;8.670;2022-07-04T07:38:23;22.80;93.10
47765;DHT22;33529;49.242;8.670;2022-07-04T07:40:49;22.90;93.40
47765;DHT22;33529;49.242;8.670;2022-07-04T07:43:17;23.20;94.20
47765;DHT22;33529;49.242;8.670;2022-07-04T07:45:44;23.40;92.50
47765;DHT22;33529;49.242;8.670;2022-07-04T07:48:11;23.30;92.50
47765;DHT22;33529;49.242;8.670;2022-07-04T07:50:41;23.40;93.10
47765;DHT22;33529;49.242;8.670;2022-07-04T07:53:07;23.60;93.10
47765;DHT22;33529;49.242;8.670;2022-07-04T07:55:34;23.60;92.00
47765;DHT22;33529;49.242;8.670;2022-07-04T07:58:01;23.70;92.30
47765;DHT22;33529;49.242;8.670;2022-07-04T08:00:29;23.70;92.20
47765;DHT22;33529;49.242;8.670;2022-07-04T08:03:15;23.90;92.90
47765;DHT22;33529;49.242;8.670;2022-07-04T08:06:01;24.00;92.80
47765;DHT22;33529;49.242;8.670;2022-07-04T08:08:28;23.90;91.00
47765;DHT22;33529;49.242;8.670;2022-07-04T08:10:55;24.00;92.00
47765;DHT22;33529;49.242;8.670;2022-07-04T08:13:22;24.20;91.20
47765;DHT22;33529;49.242;8.670;2022-07-04T08:15:48;24.10;90.80
47765;DHT22;33529;49.242;8.670;2022-07-04T08:18:15;24.10;89.50
47765;DHT22;33529;49.242;8.670;2022-07-04T08:20:44;24.20;90.30
47765;DHT22;33529;49.242;8.670;2022-07-04T08:23:32;24.10;90.90
47765;DHT22;33529;49.242;8.670;2022-07-04T08:26:00;24.20;89.80
47765;DHT22;33529;49.242;8.670;2022-07-04T08:28:27;24.40;91.00
47765;DHT22;33529;49.242;8.670;2022-07-04T08:30:55;24.20;90.50
47765;DHT22;33529;49.242;8.670;2022-07-04T08:33:23;24.40;90.60
47765;DHT22;33529;49.242;8.670;2022-07-04T08:35:51;24.40;89.30
47765;DHT22;33529;49.242;8.670;2022-07-04T08:38:18;24.30;90.10
47765;DHT22;33529;49.242;8.670;2022-07-04T08:40:45;24.50;89.00
47765;DHT22;33529;49.242;8.670;2022-07-04T08:43:14;24.70;88.30
47765;DHT22;33529;49.242;8.670;2022-07-04T08:45:41;24.60;90.90
47765;DHT22;33529;49.242;8.670;2022-07-04T08:48:33;24.50;89.60
47765;DHT22;33529;49.242;8.670;2022-07-04T08:51:15;24.50;86.40
47765;DHT22;33529;49.242;8.670;2022-07-04T08:53:49;24.60;86.40
47765;DHT22;33529;49.242;8.670;2022-07-04T08:56:19;24.90;87.70
47765;DHT22;33529;49.242;8.670;2022-07-04T08:59:05;24.80;86.70
47765;DHT22;33529;49.242;8.670;2022-07-04T09:01:33;25.00;86.30
47765;DHT22;33529;49.242;8.670;2022-07-04T09:04:01;24.90;84.80
47765;DHT22;33529;49.242;8.670;2022-07-04T09:06:28;24.90;84.30
47765;DHT22;33529;49.242;8.670;2022-07-04T09:08:56;25.10;86.20
47765;DHT22;33529;49.242;8.670;2022-07-04T09:11:23;25.20;86.10
47765;DHT22;33529;49.242;8.670;2022-07-04T09:13:50;25.10;84.80
47765;DHT22;33529;49.242;8.670;2022-07-04T09:16:17;25.00;86.80
47765;DHT22;33529;49.242;8.670;2022-07-04T09:18:44;24.90;84.80
47765;DHT22;33529;49.242;8.670;2022-07-04T09:21:11;25.00;85.80
47765;DHT22;33529;49.242;8.670;2022-07-04T09:23:42;25.00;82.60
47765;DHT22;33529;49.242;8.670;2022-07-04T09:26:21;24.70;82.20
47765;DHT22;33529;49.242;8.670;2022-07-04T09:28:56;24.90;85.50
47765;DHT22;33529;49.242;8.670;2022-07-04T09:31:25;25.00;84.80
47765;DHT22;33529;49.242;8.670;2022-07-04T09:33:54;25.20;84.40
47765;DHT22;33529;49.242;8.670;2022-07-04T09:36:25;25.00;81.50
47765;DHT22;33529;49.242;8.670;2022-07-04T09:39:16;25.00;79.50
47765;DHT22;33529;49.242;8.670;2022-07-04T09:41:51;25.00;82.10
47765;DHT22;33529;49.242;8.670;2022-07-04T09:44:19;25.00;81.40
47765;DHT22;33529;49.242;8.670;2022-07-04T09:46:46;24.90;83.50
47765;DHT22;33529;49.242;8.670;2022-07-04T09:49:13;24.90;83.00
47765;DHT22;33529;49.242;8.670;2022-07-04T09:51:43;25.00;82.90
47765;DHT22;33529;49.242;8.670;2022-07-04T09:54:21;25.00;82.10
47765;DHT22;33529;49.242;8.670;2022-07-04T09:56:50;25.20;81.30
47765;DHT22;33529;49.242;8.670;2022-07-04T09:59:19;25.30;81.70
47765;DHT22;33529;49.242;8.670;2022-07-04T10:01:47;25.30;81.70
47765;DHT22;33529;49.242;8.670;2022-07-04T10:04:14;25.20;78.30
47765;DHT22;33529;49.242;8.670;2022-07-04T10:06:44;25.20;79.40
47765;DHT22;33529;49.242;8.670;2022-07-04T10:09:16;25.30;79.30
47765;DHT22;33529;49.242;8.670;2022-07-04T10:11:45;25.40;79.50
47765;DHT22;33529;49.242;8.670;2022-07-04T10:14:14;25.40;81.20
47765;DHT22;33529;49.242;8.670;2022-07-04T10:16:42;25.50;80.80
47765;DHT22;33529;49.242;8.670;2022-07-04T10:19:10;25.60;78.90
47765;DHT22;33529;49.242;8.670;2022-07-04T10:21:39;25.80;79.60
47765;DHT22;33529;49.242;8.670;2022-07-04T10:24:06;25.80;79.10
47765;DHT22;33529;49.242;8.670;2022-07-04T10:26:33;25.90;77.40
47765;DHT22;33529;49.242;8.670;2022-07-04T10:29:00;25.90;77.00
47765;DHT22;33529;49.242;8.670;2022-07-04T10:31:29;25.80;77.50
47765;DHT22;33529;49.242;8.670;2022-07-04T10:33:57;25.50;76.30
47765;DHT22;33529;49.242;8.670;2022-07-04T10:36:26;25.50;76.60
47765;DHT22;33529;49.242;8.670;2022-07-04T10:38:59;25.50;81.30
47765;DHT22;33529;49.242;8.670;2022-07-04T10:41:28;25.70;79.60
47765;DHT22;33529;49.242;8.670;2022-07-04T10:46:43;25.90;77.10
47765;DHT22;33529;49.242;8.670;2022-07-04T10:54:33;26.40;74.20
47765;DHT22;33529;49.242;8.670;2022-07-04T10:57:22;26.50;74.00
47765;DHT22;33529;49.242;8.670;2022-07-04T11:02:36;26.00;73.80
47765;DHT22;33529;49.242;8.670;2022-07-04T11:05:11;26.00;75.80
47765;DHT22;33529;49.242;8.670;2022-07-04T11:18:07;25.80;72.90
47765;DHT22;33529;49.242;8.670;2022-07-04T11:20:36;25.70;74.30
47765;DHT22;33529;49.242;8.670;2022-07-04T11:23:09;25.90;75.20
47765;DHT22;33529;49.242;8.670;2022-07-04T11:25:38;26.00;74.40
47765;DHT22;33529;49.242;8.670;2022-07-04T11:28:22;26.40;75.30
47765;DHT22;33529;49.242;8.670;2022-07-04T11:31:09;26.80;72.70
47765;DHT22;33529;49.242;8.670;2022-07-04T11:33:37;26.90;73.10
47765;DHT22;33529;49.242;8.670;2022-07-04T11:36:11;26.40;69.90
47765;DHT22;33529;49.242;8.670;2022-07-04T11:38:58;26.10;71.00
47765;DHT22;33529;49.242;8.670;2022-07-04T11:44:21;25.90;71.40
47765;DHT22;33529;49.242;8.670;2022-07-04T11:49:48;26.20;73.80
47765;DHT22;33529;49.242;8.670;2022-07-04T11:52:21;26.60;72.70
47765;DHT22;33529;49.242;8.670;2022-07-04T11:55:12;27.10;72.10
47765;DHT22;33529;49.242;8.670;2022-07-04T11:57:42;27.00;72.80
47765;DHT22;33529;49.242;8.670;2022-07-04T12:00:16;27.00;71.30
47765;DHT22;33529;49.242;8.670;2022-07-04T12:02:45;27.20;71.80
47765;DHT22;33529;49.242;8.670;2022-07-04T12:05:12;27.50;73.30
47765;DHT22;33529;49.242;8.670;2022-07-04T12:07:42;27.30;68.50
47765;DHT22;33529;49.242;8.670;2022-07-04T12:10:29;27.10;70.70
47765;DHT22;33529;49.242;8.670;2022-07-04T12:13:03;27.00;70.30
47765;DHT22;33529;49.242;8.670;2022-07-04T12:15:41;27.30;70.20
47765;DHT22;33529;49.242;8.670;2022-07-04T12:18:35;27.50;70.50
47765;DHT22;33529;49.242;8.670;2022-07-04T12:21:13;27.60;69.10
47765;DHT22;33529;49.242;8.670;2022-07-04T12:23:51;27.70;69.40
47765;DHT22;33529;49.242;8.670;2022-07-04T12:26:33;27.70;69.60
47765;DHT22;33529;49.242;8.670;2022-07-04T12:29:02;27.80;70.90
47765;DHT22;33529;49.242;8.670;2022-07-04T12:31:39;27.80;69.50
47765;DHT22;33529;49.242;8.670;2022-07-04T12:34:17;28.00;67.10
47765;DHT22;33529;49.242;8.670;2022-07-04T12:36:52;28.00;68.10
47765;DHT22;33529;49.242;8.670;2022-07-04T12:39:34;28.00;69.20
47765;DHT22;33529;49.242;8.670;2022-07-04T12:42:14;27.50;66.30
47765;DHT22;33529;49.242;8.670;2022-07-04T12:44:43;27.30;67.60
47765;DHT22;33529;49.242;8.670;2022-07-04T12:47:12;27.30;70.00
47765;DHT22;33529;49.242;8.670;2022-07-04T12:49:45;27.20;67.30
47765;DHT22;33529;49.242;8.670;2022-07-04T12:52:15;27.30;68.90
47765;DHT22;33529;49.242;8.670;2022-07-04T12:54:43;27.30;69.50
47765;DHT22;33529;49.242;8.670;2022-07-04T12:57:15;27.40;68.10
47765;DHT22;33529;49.242;8.670;2022-07-04T12:59:42;27.40;68.40
47765;DHT22;33529;49.242;8.670;2022-07-04T13:02:10;27.50;67.20
47765;DHT22;33529;49.242;8.670;2022-07-04T13:04:38;27.50;69.60
47765;DHT22;33529;49.242;8.670;2022-07-04T13:07:16;27.70;69.10
47765;DHT22;33529;49.242;8.670;2022-07-04T13:09:44;27.80;67.60
47765;DHT22;33529;49.242;8.670;2022-07-04T13:12:13;27.60;65.70
47765;DHT22;33529;49.242;8.670;2022-07-04T13:14:54;27.60;68.40
47765;DHT22;33529;49.242;8.670;2022-07-04T13:17:22;27.70;67.70
47765;DHT22;33529;49.242;8.670;2022-07-04T13:19:49;27.70;67.80
47765;DHT22;33529;49.242;8.670;2022-07-04T13:22:23;27.40;68.60
47765;DHT22;33529;49.242;8.670;2022-07-04T13:24:50;27.60;68.30
47765;DHT22;33529;49.242;8.670;2022-07-04T13:27:17;27.60;65.60
47765;DHT22;33529;49.242;8.670;2022-07-04T13:29:45;27.60;66.70
47765;DHT22;33529;49.242;8.670;2022-07-04T13:32:12;27.40;66.50
47765;DHT22;33529;49.242;8.670;2022-07-04T13:34:39;27.40;67.00
47765;DHT22;33529;49.242;8.670;2022-07-04T13:37:06;27.30;65.80
47765;DHT22;33529;49.242;8.670;2022-07-04T13:39:33;27.40;66.30
47765;DHT22;33529;49.242;8.670;2022-07-04T13:42:18;27.60;67.70
47765;DHT22;33529;49.242;8.670;2022-07-04T13:45:06;27.80;65.90
47765;DHT22;33529;49.242;8.670;2022-07-04T13:47:34;28.00;67.30
47765;DHT22;33529;49.242;8.670;2022-07-04T13:50:01;27.80;65.30
47765;DHT22;33529;49.242;8.670;2022-07-04T13:52:27;27.60;66.00
47765;DHT22;33529;49.242;8.670;2022-07-04T13:54:54;27.60;66.30
47765;DHT22;33529;49.242;8.670;2022-07-04T13:57:21;27.60;67.00
47765;DHT22;33529;49.242;8.670;2022-07-04T13:59:48;27.70;67.50
47765;DHT22;33529;49.242;8.670;2022-07-04T14:02:15;28.00;65.80
47765;DHT22;33529;49.242;8.670;2022-07-04T14:04:42;27.80;66.30
47765;DHT22;33529;49.242;8.670;2022-07-04T14:07:09;28.10;65.10
47765;DHT22;33529;49.242;8.670;2022-07-04T14:09:44;29.00;66.20
47765;DHT22;33529;49.242;8.670;2022-07-04T14:12:11;29.80;63.40
47765;DHT22;33529;49.242;8.670;2022-07-04T14:14:38;30.20;64.60
47765;DHT22;33529;49.242;8.670;2022-07-04T14:17:05;31.00;62.80
47765;DHT22;33529;49.242;8.670;2022-07-04T14:19:52;31.00;61.10
47765;DHT22;33529;49.242;8.670;2022-07-04T14:22:19;31.60;62.80
47765;DHT22;33529;49.242;8.670;2022-07-04T14:24:46;32.30;59.30
47765;DHT22;33529;49.242;8.670;2022-07-04T14:27:13;33.10;60.10
47765;DHT22;33529;49.242;8.670;2022-07-04T14:29:41;34.10;58.30
47765;DHT22;33529;49.242;8.670;2022-07-04T14:32:09;34.50;57.90
47765;DHT22;33529;49.242;8.670;2022-07-04T14:34:36;35.40;56.60
47765;DHT22;33529;49.242;8.670;2022-07-04T14:37:03;35.00;56.50
47765;DHT22;33529;49.242;8.670;2022-07-04T14:39:30;34.90;56.40
47765;DHT22;33529;49.242;8.670;2022-07-04T14:41:56;35.00;56.80
47765;DHT22;33529;49.242;8.670;2022-07-04T14:44:23;35.60;55.50
47765;DHT22;33529;49.242;8.670;2022-07-04T14:46:50;35.70;53.70
47765;DHT22;33529;49.242;8.670;2022-07-04T14:49:17;35.30;54.00
47765;DHT22;33529;49.242;8.670;2022-07-04T14:51:44;34.90;53.00
47765;DHT22;33529;49.242;8.670;2022-07-04T14:54:11;34.90;54.40
47765;DHT22;33529;49.242;8.670;2022-07-04T14:56:38;36.00;54.10
47765;DHT22;33529;49.242;8.670;2022-07-04T14:59:05;36.10;53.20
47765;DHT22;33529;49.242;8.670;2022-07-04T15:01:32;36.70;52.10
47765;DHT22;33529;49.242;8.670;2022-07-04T15:03:59;37.00;51.40
47765;DHT22;33529;49.242;8.670;2022-07-04T15:06:26;37.40;51.60
47765;DHT22;33529;49.242;8.670;2022-07-04T15:08:53;38.20;51.40
47765;DHT22;33529;49.242;8.670;2022-07-04T15:11:20;37.70;48.60
47765;DHT22;33529;49.242;8.670;2022-07-04T15:13:47;37.40;49.90
47765;DHT22;33529;49.242;8.670;2022-07-04T15:16:14;39.00;49.60
47765;DHT22;33529;49.242;8.670;2022-07-04T15:18:52;40.30;49.00
47765;DHT22;33529;49.242;8.670;2022-07-04T15:21:20;40.30;46.70
47765;DHT22;33529;49.242;8.670;2022-07-04T15:24:06;39.20;48.20
47765;DHT22;33529;49.242;8.670;2022-07-04T15:26:41;37.90;48.00
47765;DHT22;33529;49.242;8.670;2022-07-04T15:29:09;36.90;48.40
47765;DHT22;33529;49.242;8.670;2022-07-04T15:31:39;37.10;46.40
47765;DHT22;33529;49.242;8.670;2022-07-04T15:34:06;35.30;48.90
47765;DHT22;33529;49.242;8.670;2022-07-04T15:36:33;34.10;49.30
47765;DHT22;33529;49.242;8.670;2022-07-04T15:39:09;33.30;51.50
47765;DHT22;33529;49.242;8.670;2022-07-04T15:41:39;33.90;49.50
47765;DHT22;33529;49.242;8.670;2022-07-04T15:44:06;35.50;49.40
47765;DHT22;33529;49.242;8.670;2022-07-04T15:46:33;36.20;49.40
47765;DHT22;33529;49.242;8.670;2022-07-04T15:49:03;36.60;49.70
47765;DHT22;33529;49.242;8.670;2022-07-04T15:51:37;37.80;47.30
47765;DHT22;33529;49.242;8.670;2022-07-04T15:54:12;38.70;47.20
47765;DHT22;33529;49.242;8.670;2022-07-04T15:56:39;38.60;47.10
47765;DHT22;33529;49.242;8.670;2022-07-04T15:59:06;38.30;47.40
47765;DHT22;33529;49.242;8.670;2022-07-04T16:01:33;38.70;46.50
47765;DHT22;33529;49.242;8.670;2022-07-04T16:04:00;39.20;46.20
47765;DHT22;33529;49.242;8.670;2022-07-04T16:06:29;40.00;44.70
47765;DHT22;33529;49.242;8.670;2022-07-04T16:08:56;38.20;45.30